Welcome to Des Moines Iowa Weather. I am an independent private personal weather station on the Northwest Side of Des Moines, Iowa. Just East of Windsor Heights and just West of Glendale . This site is also mobile friendly.

There are no active watches, warnings or advisories


Visit our other weather sites:

Historical Data

Weather Station Setup



Weather Underground History page Text

Daily Summary for May 9, 2017 Units:  English    Metric   Both
« Previous Day
Next Day »
Daily Weekly Monthly Yearly Custom
  High: Low: Average:
Temperature: 80.0 °F 59.8 °F 70 °F
Dew Point: 61.0 °F 53.0 °F 57.9 °F
Humidity: 81 % 48 % 67 %
Wind Speed: 5.0 mph 0.0 mph 1.1 mph
Wind Gust: 12.0 mph - -
Wind:- - SSW
Pressure: 29.88 in 29.77 in -
Precipitation: 0.00 in    
Historical Graphs
 
 
Tabular Data for May 9, 2017
Time Temperature Dew Point Pressure Wind Wind Speed Wind Gust Humidity Rainfall Rate (Hourly)
00:14 69.6 °F 61.0 °F 29.77 in Calm     74 % 0.00 in
00:29 69.3 °F 61.0 °F 29.77 in Calm   2.0 mph 74 % 0.00 in
00:44 69.2 °F 61.0 °F 29.77 in North 1.0 mph 3.0 mph 75 % 0.00 in
00:59 69.4 °F 61.0 °F 29.77 in Calm   4.0 mph 74 % 0.00 in
01:14 69.6 °F 61.0 °F 29.77 in Calm   2.0 mph 73 % 0.00 in
01:29 69.7 °F 60.0 °F 29.77 in NW 1.0 mph 8.0 mph 72 % 0.00 in
01:44 69.6 °F 60.0 °F 29.77 in NE 1.0 mph 4.0 mph 72 % 0.00 in
01:59 69.3 °F 60.0 °F 29.77 in NE 1.0 mph 1.0 mph 72 % 0.00 in
02:14 68.7 °F 59.0 °F 29.78 in Calm   4.0 mph 72 % 0.00 in
02:29 68.1 °F 59.0 °F 29.77 in North 3.0 mph 4.0 mph 73 % 0.00 in
02:44 67.6 °F 59.0 °F 29.77 in Calm   5.0 mph 74 % 0.00 in
02:59 67.0 °F 58.0 °F 29.78 in Calm   3.0 mph 74 % 0.00 in
03:14 66.5 °F 58.0 °F 29.78 in Calm   6.0 mph 75 % 0.00 in
03:29 65.9 °F 58.0 °F 29.78 in Calm   2.0 mph 75 % 0.00 in
03:45 65.5 °F 58.0 °F 29.79 in Calm   3.0 mph 76 % 0.00 in
04:00 65.0 °F 57.0 °F 29.78 in Calm   2.0 mph 76 % 0.00 in
04:15 64.5 °F 57.0 °F 29.78 in Calm   6.0 mph 77 % 0.00 in
04:31 64.0 °F 57.0 °F 29.79 in Calm   3.0 mph 77 % 0.00 in
04:45 63.6 °F 56.0 °F 29.79 in Calm   6.0 mph 77 % 0.00 in
05:00 63.2 °F 56.0 °F 29.79 in NNE 2.0 mph 9.0 mph 77 % 0.00 in
05:15 62.8 °F 56.0 °F 29.79 in North 2.0 mph 9.0 mph 77 % 0.00 in
05:30 62.4 °F 55.0 °F 29.79 in North 2.0 mph 9.0 mph 78 % 0.00 in
05:45 61.9 °F 55.0 °F 29.80 in South 4.0 mph 5.0 mph 78 % 0.00 in
06:00 61.4 °F 55.0 °F 29.81 in West 3.0 mph 5.0 mph 79 % 0.00 in
06:15 60.9 °F 54.0 °F 29.81 in NW 3.0 mph 8.0 mph 79 % 0.00 in
06:30 60.4 °F 54.0 °F 29.82 in West 1.0 mph 9.0 mph 79 % 0.00 in
06:45 60.1 °F 54.0 °F 29.82 in NW 2.0 mph 8.0 mph 79 % 0.00 in
07:00 59.8 °F 53.0 °F 29.83 in NNE 1.0 mph 8.0 mph 79 % 0.00 in
07:15 59.8 °F 53.0 °F 29.83 in NNW 5.0 mph 8.0 mph 79 % 0.00 in
07:30 59.9 °F 53.0 °F 29.84 in West 3.0 mph 8.0 mph 78 % 0.00 in
07:45 60.0 °F 53.0 °F 29.84 in NNW 3.0 mph 9.0 mph 77 % 0.00 in
08:00 60.3 °F 53.0 °F 29.85 in West 3.0 mph 10.0 mph 77 % 0.00 in
08:15 60.6 °F 53.0 °F 29.85 in North 1.0 mph 9.0 mph 76 % 0.00 in
08:30 61.0 °F 53.0 °F 29.86 in WNW 2.0 mph 8.0 mph 76 % 0.00 in
08:45 61.6 °F 54.0 °F 29.87 in NNW 1.0 mph 12.0 mph 76 % 0.00 in
09:00 62.7 °F 55.0 °F 29.86 in NW 2.0 mph 9.0 mph 75 % 0.00 in
09:15 63.7 °F 54.0 °F 29.86 in East 3.0 mph 9.0 mph 71 % 0.00 in
09:30 64.1 °F 55.0 °F 29.87 in NW 3.0 mph 11.0 mph 71 % 0.00 in
09:45 64.2 °F 54.0 °F 29.87 in NNE 2.0 mph 6.0 mph 70 % 0.00 in
10:00 64.6 °F 55.0 °F 29.87 in NW 4.0 mph 10.0 mph 70 % 0.00 in
10:15 65.1 °F 55.0 °F 29.86 in NW 5.0 mph 9.0 mph 69 % 0.00 in
10:30 65.4 °F 55.0 °F 29.86 in NW 2.0 mph 8.0 mph 69 % 0.00 in
10:46 66.3 °F 55.0 °F 29.87 in ENE 2.0 mph 10.0 mph 67 % 0.00 in
11:01 67.6 °F 56.0 °F 29.88 in NNE 2.0 mph 10.0 mph 66 % 0.00 in
11:16 68.8 °F 56.0 °F 29.88 in North 2.0 mph 6.0 mph 65 % 0.00 in
11:31 69.9 °F 58.0 °F 29.88 in Calm   6.0 mph 65 % 0.00 in
11:46 71.1 °F 57.0 °F 29.88 in ENE 1.0 mph 6.0 mph 62 % 0.00 in
12:01 72.0 °F 57.0 °F 29.88 in WNW 4.0 mph 9.0 mph 59 % 0.00 in
12:16 72.7 °F 58.0 °F 29.87 in West 3.0 mph 7.0 mph 60 % 0.00 in
12:31 73.4 °F 58.0 °F 29.87 in Calm   8.0 mph 59 % 0.00 in
12:46 73.1 °F 58.0 °F 29.87 in East 3.0 mph 6.0 mph 59 % 0.00 in
13:01 74.1 °F 57.0 °F 29.87 in North 2.0 mph 5.0 mph 55 % 0.00 in
13:16 74.2 °F 57.0 °F 29.87 in Calm   6.0 mph 55 % 0.00 in
13:31 75.2 °F 58.0 °F 29.86 in ENE 4.0 mph 8.0 mph 55 % 0.00 in
13:46 75.8 °F 61.0 °F 29.85 in Calm   8.0 mph 60 % 0.00 in
14:01 75.6 °F 58.0 °F 29.85 in NW 1.0 mph 5.0 mph 54 % 0.00 in
14:16 75.8 °F 58.0 °F 29.84 in Calm   6.0 mph 55 % 0.00 in
14:31 76.9 °F 58.0 °F 29.84 in Calm   3.0 mph 52 % 0.00 in
14:46 76.8 °F 59.0 °F 29.83 in Calm   6.0 mph 54 % 0.00 in
15:01 76.6 °F 59.0 °F 29.83 in South 2.0 mph 7.0 mph 55 % 0.00 in
15:16 77.7 °F 59.0 °F 29.83 in SSE 1.0 mph 6.0 mph 52 % 0.00 in
15:31 78.7 °F 59.0 °F 29.82 in NE 1.0 mph 7.0 mph 51 % 0.00 in
15:46 77.4 °F 58.0 °F 29.82 in Calm   6.0 mph 51 % 0.00 in
16:01 78.7 °F 59.0 °F 29.81 in NNE 1.0 mph 4.0 mph 51 % 0.00 in
16:16 79.5 °F 59.0 °F 29.81 in ENE 2.0 mph 4.0 mph 49 % 0.00 in
16:31 79.2 °F 58.0 °F 29.80 in Calm   4.0 mph 48 % 0.00 in
16:46 79.2 °F 58.0 °F 29.80 in NE 1.0 mph 3.0 mph 49 % 0.00 in
17:01 80.0 °F 59.0 °F 29.79 in NNE 3.0 mph 4.0 mph 48 % 0.00 in
17:16 78.8 °F 59.0 °F 29.79 in Calm     51 % 0.00 in
17:31 79.7 °F 59.0 °F 29.79 in Calm   1.0 mph 49 % 0.00 in
17:46 79.6 °F 59.0 °F 29.79 in Calm   1.0 mph 50 % 0.00 in
18:01 79.5 °F 59.0 °F 29.79 in Calm   2.0 mph 49 % 0.00 in
18:16 78.7 °F 60.0 °F 29.79 in Calm   2.0 mph 53 % 0.00 in
18:31 78.8 °F 59.0 °F 29.79 in Calm   2.0 mph 51 % 0.00 in
18:47 78.6 °F 60.0 °F 29.79 in Calm     54 % 0.00 in
19:02 78.3 °F 61.0 °F 29.78 in Calm   1.0 mph 55 % 0.00 in
19:16 77.7 °F 61.0 °F 29.79 in Calm   2.0 mph 57 % 0.00 in
19:31 77.2 °F 60.0 °F 29.79 in Calm   3.0 mph 56 % 0.00 in
19:47 76.8 °F 61.0 °F 29.79 in Calm   2.0 mph 58 % 0.00 in
20:02 76.3 °F 60.0 °F 29.79 in Calm   2.0 mph 58 % 0.00 in
20:17 75.6 °F 61.0 °F 29.79 in Calm     60 % 0.00 in
20:32 74.7 °F 60.0 °F 29.79 in Calm     61 % 0.00 in
20:47 73.7 °F 60.0 °F 29.79 in Calm     63 % 0.00 in
21:02 72.8 °F 60.0 °F 29.79 in Calm     65 % 0.00 in
21:17 71.7 °F 60.0 °F 29.79 in Calm     67 % 0.00 in
21:32 70.6 °F 60.0 °F 29.79 in Calm     70 % 0.00 in
21:47 69.9 °F 60.0 °F 29.80 in Calm     71 % 0.00 in
22:02 69.1 °F 60.0 °F 29.80 in Calm     73 % 0.00 in
22:17 68.6 °F 60.0 °F 29.80 in Calm     75 % 0.00 in
22:32 68.1 °F 61.0 °F 29.81 in Calm     77 % 0.00 in
22:47 67.6 °F 60.0 °F 29.81 in Calm     77 % 0.00 in
23:02 67.4 °F 61.0 °F 29.81 in Calm     79 % 0.00 in
23:17 67.3 °F 61.0 °F 29.81 in Calm     80 % 0.00 in
23:32 67.1 °F 61.0 °F 29.81 in Calm     80 % 0.00 in
23:47 66.9 °F 61.0 °F 29.82 in Calm   2.0 mph 81 % 0.00 in
Des Moines Weather and Climate
Compliments of Weather Underground - 3 mb

Script developed by  Jim McMurry - jmcmurry@mwt.net Adapted for the template by  Wim van der Kuil - Leuven-Template.eu

You find our weather info also at:

Weather Underground

Equipment we use:

Weather-station
Davis VP2 Plus

Weather-program
Davis Weatherlink.Com

Weather-server
iMac (Retina 4K, 21.5-inch, Late 2015)

Provider
Hostmonster.com

Davis VP2 Plus

Davis Weatherlink.Com

iMac (Retina 4K, 21.5-inch, Late 2015)

Hostmonster.com